sensor_id;sensor_type;location;lat;lon;timestamp;pressure;altitude;pressure_sealevel;temperature;humidity
75166;BME280;63747;48.042;10.088;2023-02-17T00:02:20;96085.50;;;6.94;49.42
75166;BME280;63747;48.042;10.088;2023-02-17T00:05:21;96083.84;;;6.93;49.59
75166;BME280;63747;48.042;10.088;2023-02-17T00:08:22;96084.22;;;6.88;49.44
75166;BME280;63747;48.042;10.088;2023-02-17T00:11:23;96081.84;;;6.85;49.54
75166;BME280;63747;48.042;10.088;2023-02-17T00:14:23;96082.94;;;6.83;49.56
75166;BME280;63747;48.042;10.088;2023-02-17T00:17:24;96079.31;;;6.84;49.57
75166;BME280;63747;48.042;10.088;2023-02-17T00:20:27;96088.66;;;6.88;49.43
75166;BME280;63747;48.042;10.088;2023-02-17T00:23:29;96082.69;;;6.86;49.23
75166;BME280;63747;48.042;10.088;2023-02-17T00:26:30;96079.78;;;6.89;49.31
75166;BME280;63747;48.042;10.088;2023-02-17T00:29:31;96076.19;;;6.90;49.25
75166;BME280;63747;48.042;10.088;2023-02-17T00:32:32;96074.13;;;6.93;49.10
75166;BME280;63747;48.042;10.088;2023-02-17T00:35:33;96080.63;;;6.89;49.22
75166;BME280;63747;48.042;10.088;2023-02-17T00:38:33;96077.53;;;6.84;48.99
75166;BME280;63747;48.042;10.088;2023-02-17T00:41:34;96080.75;;;6.88;48.91
75166;BME280;63747;48.042;10.088;2023-02-17T00:44:35;96075.47;;;6.88;48.78
75166;BME280;63747;48.042;10.088;2023-02-17T00:47:35;96073.53;;;6.90;48.80
75166;BME280;63747;48.042;10.088;2023-02-17T00:50:36;96073.41;;;6.91;48.70
75166;BME280;63747;48.042;10.088;2023-02-17T00:53:37;96070.34;;;6.86;48.67
75166;BME280;63747;48.042;10.088;2023-02-17T00:56:38;96073.09;;;6.85;48.57
75166;BME280;63747;48.042;10.088;2023-02-17T00:59:39;96077.28;;;6.87;48.50
75166;BME280;63747;48.042;10.088;2023-02-17T01:02:39;96072.16;;;6.86;48.60
75166;BME280;63747;48.042;10.088;2023-02-17T01:05:45;96074.78;;;6.86;48.37
75166;BME280;63747;48.042;10.088;2023-02-17T01:08:46;96070.59;;;6.83;48.14
75166;BME280;63747;48.042;10.088;2023-02-17T01:11:46;96080.16;;;6.84;47.83
75166;BME280;63747;48.042;10.088;2023-02-17T01:14:47;96074.06;;;6.84;48.12
75166;BME280;63747;48.042;10.088;2023-02-17T01:17:48;96087.97;;;6.86;48.30
75166;BME280;63747;48.042;10.088;2023-02-17T01:20:49;96074.56;;;6.77;48.23
75166;BME280;63747;48.042;10.088;2023-02-17T01:23:52;96078.63;;;6.82;48.17
75166;BME280;63747;48.042;10.088;2023-02-17T01:26:53;96073.50;;;6.80;48.36
75166;BME280;63747;48.042;10.088;2023-02-17T01:29:54;96070.59;;;6.83;48.19
75166;BME280;63747;48.042;10.088;2023-02-17T01:32:54;96075.63;;;6.86;48.21
75166;BME280;63747;48.042;10.088;2023-02-17T01:36:00;96066.97;;;6.84;48.16
75166;BME280;63747;48.042;10.088;2023-02-17T01:39:02;96069.50;;;6.86;48.25
75166;BME280;63747;48.042;10.088;2023-02-17T01:42:03;96065.19;;;6.85;48.26
75166;BME280;63747;48.042;10.088;2023-02-17T01:48:20;96070.06;;;6.89;48.42
75166;BME280;63747;48.042;10.088;2023-02-17T01:51:25;96051.06;;;6.86;48.54
75166;BME280;63747;48.042;10.088;2023-02-17T01:54:33;96052.47;;;6.90;48.45
75166;BME280;63747;48.042;10.088;2023-02-17T01:57:37;96050.41;;;6.93;48.45
75166;BME280;63747;48.042;10.088;2023-02-17T02:00:38;96047.91;;;6.92;48.46
75166;BME280;63747;48.042;10.088;2023-02-17T02:03:40;96049.81;;;6.90;48.51
75166;BME280;63747;48.042;10.088;2023-02-17T02:06:41;96044.53;;;6.90;48.38
75166;BME280;63747;48.042;10.088;2023-02-17T02:09:50;96043.47;;;6.92;48.39
75166;BME280;63747;48.042;10.088;2023-02-17T02:12:53;96047.63;;;6.95;48.44
75166;BME280;63747;48.042;10.088;2023-02-17T02:16:15;96042.63;;;6.92;48.60
75166;BME280;63747;48.042;10.088;2023-02-17T02:29:51;96030.47;;;7.00;48.13
75166;BME280;63747;48.042;10.088;2023-02-17T02:36:22;96037.13;;;7.04;48.24
75166;BME280;63747;48.042;10.088;2023-02-17T02:39:29;96024.91;;;7.03;48.04
75166;BME280;63747;48.042;10.088;2023-02-17T02:42:34;96026.72;;;7.03;48.14
75166;BME280;63747;48.042;10.088;2023-02-17T02:45:34;96019.09;;;7.00;48.02
75166;BME280;63747;48.042;10.088;2023-02-17T02:48:36;96014.25;;;7.05;47.93
75166;BME280;63747;48.042;10.088;2023-02-17T02:52:10;96019.25;;;7.08;47.98
75166;BME280;63747;48.042;10.088;2023-02-17T02:55:33;96012.31;;;7.07;47.83
75166;BME280;63747;48.042;10.088;2023-02-17T02:58:45;96013.72;;;7.11;47.77
75166;BME280;63747;48.042;10.088;2023-02-17T03:01:59;96005.69;;;7.13;47.62
75166;BME280;63747;48.042;10.088;2023-02-17T03:05:11;96005.94;;;7.10;47.56
75166;BME280;63747;48.042;10.088;2023-02-17T03:08:20;95993.59;;;7.10;47.44
75166;BME280;63747;48.042;10.088;2023-02-17T03:11:25;95999.84;;;7.09;47.30
75166;BME280;63747;48.042;10.088;2023-02-17T03:14:35;96001.91;;;7.05;47.60
75166;BME280;63747;48.042;10.088;2023-02-17T03:17:36;95995.78;;;7.05;47.64
75166;BME280;63747;48.042;10.088;2023-02-17T03:20:47;95995.78;;;7.05;47.76
75166;BME280;63747;48.042;10.088;2023-02-17T03:23:49;95996.66;;;7.05;47.78
75166;BME280;63747;48.042;10.088;2023-02-17T03:26:49;95996.38;;;7.08;47.80
75166;BME280;63747;48.042;10.088;2023-02-17T03:29:50;95988.84;;;7.04;47.84
75166;BME280;63747;48.042;10.088;2023-02-17T03:32:50;95994.44;;;7.11;47.92
75166;BME280;63747;48.042;10.088;2023-02-17T03:35:51;96008.19;;;7.14;47.85
75166;BME280;63747;48.042;10.088;2023-02-17T03:38:52;95995.84;;;7.15;47.76
75166;BME280;63747;48.042;10.088;2023-02-17T03:41:53;95999.31;;;7.15;47.87
75166;BME280;63747;48.042;10.088;2023-02-17T03:44:53;95988.63;;;7.17;47.88
75166;BME280;63747;48.042;10.088;2023-02-17T03:47:54;95999.31;;;7.15;47.81
75166;BME280;63747;48.042;10.088;2023-02-17T03:50:55;95997.66;;;7.14;47.94
75166;BME280;63747;48.042;10.088;2023-02-17T03:53:55;95993.34;;;7.13;47.78
75166;BME280;63747;48.042;10.088;2023-02-17T03:56:56;95982.34;;;7.08;47.96
75166;BME280;63747;48.042;10.088;2023-02-17T03:59:58;95996.09;;;7.12;47.95
75166;BME280;63747;48.042;10.088;2023-02-17T04:02:59;95985.81;;;7.08;48.02
75166;BME280;63747;48.042;10.088;2023-02-17T04:05:59;95988.31;;;7.10;48.26
75166;BME280;63747;48.042;10.088;2023-02-17T04:09:00;95985.00;;;7.08;48.45
75166;BME280;63747;48.042;10.088;2023-02-17T04:12:01;95979.44;;;7.11;48.33
75166;BME280;63747;48.042;10.088;2023-02-17T04:15:02;95984.72;;;7.11;48.45
75166;BME280;63747;48.042;10.088;2023-02-17T04:18:03;95973.34;;;7.11;48.36
75166;BME280;63747;48.042;10.088;2023-02-17T04:21:04;95980.16;;;7.13;48.57
75166;BME280;63747;48.042;10.088;2023-02-17T04:24:05;95993.59;;;7.10;48.66
75166;BME280;63747;48.042;10.088;2023-02-17T04:27:05;95991.53;;;7.14;48.74
75166;BME280;63747;48.042;10.088;2023-02-17T04:30:06;95996.22;;;7.10;48.42
75166;BME280;63747;48.042;10.088;2023-02-17T04:33:07;95993.72;;;7.08;48.41
75166;BME280;63747;48.042;10.088;2023-02-17T04:36:08;96004.13;;;7.10;48.53
75166;BME280;63747;48.042;10.088;2023-02-17T04:39:10;96001.63;;;7.08;48.32
75166;BME280;63747;48.042;10.088;2023-02-17T04:42:11;95999.84;;;7.09;48.57
75166;BME280;63747;48.042;10.088;2023-02-17T04:45:12;95990.25;;;7.08;48.54
75166;BME280;63747;48.042;10.088;2023-02-17T04:48:12;95989.28;;;7.09;48.56
75166;BME280;63747;48.042;10.088;2023-02-17T04:51:13;95983.03;;;7.10;48.42
75166;BME280;63747;48.042;10.088;2023-02-17T04:54:14;95979.72;;;7.08;48.40
75166;BME280;63747;48.042;10.088;2023-02-17T04:57:14;95980.56;;;7.08;48.19
75166;BME280;63747;48.042;10.088;2023-02-17T05:00:15;95975.88;;;7.12;48.10
75166;BME280;63747;48.042;10.088;2023-02-17T05:03:17;95978.50;;;7.12;48.37
75166;BME280;63747;48.042;10.088;2023-02-17T05:06:18;95983.63;;;7.14;48.38
75166;BME280;63747;48.042;10.088;2023-02-17T05:09:19;95975.28;;;7.08;48.18
75166;BME280;63747;48.042;10.088;2023-02-17T05:12:20;95967.22;;;7.10;48.26
75166;BME280;63747;48.042;10.088;2023-02-17T05:15:20;95974.44;;;7.08;48.38
75166;BME280;63747;48.042;10.088;2023-02-17T05:18:21;95972.06;;;7.05;48.52
75166;BME280;63747;48.042;10.088;2023-02-17T05:21:22;95976.38;;;7.06;48.64
75166;BME280;63747;48.042;10.088;2023-02-17T05:24:22;95978.44;;;7.02;48.87
75166;BME280;63747;48.042;10.088;2023-02-17T05:27:23;95974.97;;;7.02;49.04
75166;BME280;63747;48.042;10.088;2023-02-17T05:30:24;95981.22;;;7.01;49.18
75166;BME280;63747;48.042;10.088;2023-02-17T05:33:24;95980.31;;;6.91;49.43
75166;BME280;63747;48.042;10.088;2023-02-17T05:36:25;95974.66;;;6.95;49.72
75166;BME280;63747;48.042;10.088;2023-02-17T05:39:26;95984.97;;;6.98;49.82
75166;BME280;63747;48.042;10.088;2023-02-17T05:42:26;95986.19;;;6.94;50.07
75166;BME280;63747;48.042;10.088;2023-02-17T05:45:27;95992.66;;;6.90;50.03
75166;BME280;63747;48.042;10.088;2023-02-17T05:48:28;95986.56;;;6.90;50.21
75166;BME280;63747;48.042;10.088;2023-02-17T05:51:29;95985.72;;;6.89;50.22
75166;BME280;63747;48.042;10.088;2023-02-17T05:54:29;95984.22;;;6.87;50.26
75166;BME280;63747;48.042;10.088;2023-02-17T05:57:30;95996.78;;;6.83;50.24
75166;BME280;63747;48.042;10.088;2023-02-17T06:00:31;95991.81;;;6.80;50.21
75166;BME280;63747;48.042;10.088;2023-02-17T06:03:32;95985.56;;;6.81;50.24
75166;BME280;63747;48.042;10.088;2023-02-17T06:06:33;95984.72;;;6.80;50.38
75166;BME280;63747;48.042;10.088;2023-02-17T06:09:34;95990.97;;;6.79;50.37
75166;BME280;63747;48.042;10.088;2023-02-17T06:12:34;95981.81;;;6.84;50.38
75166;BME280;63747;48.042;10.088;2023-02-17T06:15:35;95992.34;;;6.84;50.38
75166;BME280;63747;48.042;10.088;2023-02-17T06:18:36;95996.56;;;6.86;50.30
75166;BME280;63747;48.042;10.088;2023-02-17T06:21:36;95979.06;;;6.85;50.38
75166;BME280;63747;48.042;10.088;2023-02-17T06:24:37;95983.25;;;6.88;50.63
75166;BME280;63747;48.042;10.088;2023-02-17T06:27:38;95988.50;;;6.88;50.35
75166;BME280;63747;48.042;10.088;2023-02-17T06:30:41;95990.16;;;6.89;50.54
75166;BME280;63747;48.042;10.088;2023-02-17T06:33:41;95994.34;;;6.91;50.64
75166;BME280;63747;48.042;10.088;2023-02-17T06:36:42;95996.13;;;6.91;50.76
75166;BME280;63747;48.042;10.088;2023-02-17T06:39:43;96007.78;;;6.88;50.89
75166;BME280;63747;48.042;10.088;2023-02-17T06:42:43;95998.47;;;6.84;51.03
75166;BME280;63747;48.042;10.088;2023-02-17T06:45:44;96003.88;;;6.83;51.21
75166;BME280;63747;48.042;10.088;2023-02-17T06:48:45;96008.16;;;6.84;51.45
75166;BME280;63747;48.042;10.088;2023-02-17T06:51:45;95998.47;;;6.84;51.60
75166;BME280;63747;48.042;10.088;2023-02-17T06:54:46;96001.00;;;6.86;51.74
75166;BME280;63747;48.042;10.088;2023-02-17T06:57:47;96017.50;;;6.88;51.72
75166;BME280;63747;48.042;10.088;2023-02-17T07:00:47;96017.63;;;6.86;51.63
75166;BME280;63747;48.042;10.088;2023-02-17T07:03:48;96033.75;;;6.93;51.81
75166;BME280;63747;48.042;10.088;2023-02-17T07:06:49;96021.56;;;6.92;51.95
75166;BME280;63747;48.042;10.088;2023-02-17T07:09:50;96026.56;;;6.95;52.07
75166;BME280;63747;48.042;10.088;2023-02-17T07:12:50;96028.53;;;7.02;51.99
75166;BME280;63747;48.042;10.088;2023-02-17T07:15:51;96038.50;;;6.99;52.15
75166;BME280;63747;48.042;10.088;2023-02-17T07:18:52;96038.25;;;7.02;52.30
75166;BME280;63747;48.042;10.088;2023-02-17T07:21:52;96031.84;;;7.04;52.22
75166;BME280;63747;48.042;10.088;2023-02-17T07:24:53;96035.22;;;7.06;52.27
75166;BME280;63747;48.042;10.088;2023-02-17T07:27:53;96034.50;;;7.04;52.34
75166;BME280;63747;48.042;10.088;2023-02-17T07:30:54;96039.13;;;7.12;52.37
75166;BME280;63747;48.042;10.088;2023-02-17T07:33:55;96032.91;;;7.13;52.41
75166;BME280;63747;48.042;10.088;2023-02-17T07:36:55;96029.84;;;7.18;52.46
75166;BME280;63747;48.042;10.088;2023-02-17T07:39:56;96024.47;;;7.19;52.60
75166;BME280;63747;48.042;10.088;2023-02-17T07:42:57;96025.69;;;7.25;52.53
75166;BME280;63747;48.042;10.088;2023-02-17T07:45:57;96040.31;;;7.29;52.62
75166;BME280;63747;48.042;10.088;2023-02-17T07:48:58;96033.22;;;7.29;52.54
75166;BME280;63747;48.042;10.088;2023-02-17T07:51:59;96042.41;;;7.35;52.60
75166;BME280;63747;48.042;10.088;2023-02-17T07:54:59;96040.09;;;7.42;52.37
75166;BME280;63747;48.042;10.088;2023-02-17T07:58:00;96039.09;;;7.43;52.63
75166;BME280;63747;48.042;10.088;2023-02-17T08:01:15;96043.41;;;7.44;52.54
75166;BME280;63747;48.042;10.088;2023-02-17T08:04:16;96048.16;;;7.50;52.50
75166;BME280;63747;48.042;10.088;2023-02-17T08:07:17;96036.78;;;7.59;52.43
75166;BME280;63747;48.042;10.088;2023-02-17T08:10:18;96051.13;;;7.66;52.45
75166;BME280;63747;48.042;10.088;2023-02-17T08:13:39;96040.16;;;7.71;52.33
75166;BME280;63747;48.042;10.088;2023-02-17T08:16:40;96047.72;;;7.75;52.42
75166;BME280;63747;48.042;10.088;2023-02-17T08:19:41;96047.19;;;7.81;52.44
75166;BME280;63747;48.042;10.088;2023-02-17T08:22:41;96054.28;;;7.91;52.40
75166;BME280;63747;48.042;10.088;2023-02-17T08:25:42;96049.69;;;7.93;52.04
75166;BME280;63747;48.042;10.088;2023-02-17T08:28:44;96061.50;;;7.98;52.03
75166;BME280;63747;48.042;10.088;2023-02-17T08:31:45;96059.44;;;8.11;51.92
75166;BME280;63747;48.042;10.088;2023-02-17T08:34:45;96056.94;;;8.20;51.85
75166;BME280;63747;48.042;10.088;2023-02-17T08:37:49;96056.94;;;8.20;51.71
75166;BME280;63747;48.042;10.088;2023-02-17T08:40:50;96062.50;;;8.26;51.38
75166;BME280;63747;48.042;10.088;2023-02-17T08:43:51;96055.00;;;8.31;51.42
75166;BME280;63747;48.042;10.088;2023-02-17T08:46:52;96058.63;;;8.40;50.85
75166;BME280;63747;48.042;10.088;2023-02-17T08:49:53;96046.81;;;8.44;51.20
75166;BME280;63747;48.042;10.088;2023-02-17T08:52:54;96051.13;;;8.45;50.40
75166;BME280;63747;48.042;10.088;2023-02-17T08:55:55;96044.44;;;8.51;50.12
75166;BME280;63747;48.042;10.088;2023-02-17T08:58:56;96057.38;;;8.63;50.17
75166;BME280;63747;48.042;10.088;2023-02-17T09:01:56;96055.16;;;8.68;50.14
75166;BME280;63747;48.042;10.088;2023-02-17T09:04:57;96052.22;;;8.81;49.89
75166;BME280;63747;48.042;10.088;2023-02-17T09:07:58;96058.03;;;8.85;49.56
75166;BME280;63747;48.042;10.088;2023-02-17T09:10:59;96059.81;;;8.94;49.86
75166;BME280;63747;48.042;10.088;2023-02-17T09:14:00;96059.38;;;9.08;49.73
75166;BME280;63747;48.042;10.088;2023-02-17T09:17:01;96065.72;;;9.35;49.17
75166;BME280;63747;48.042;10.088;2023-02-17T09:20:04;96056.13;;;9.71;49.14
75166;BME280;63747;48.042;10.088;2023-02-17T09:23:06;96058.75;;;9.98;48.93
75166;BME280;63747;48.042;10.088;2023-02-17T09:26:08;96058.03;;;10.24;48.74
75166;BME280;63747;48.042;10.088;2023-02-17T09:29:09;96067.72;;;10.33;48.26
75166;BME280;63747;48.042;10.088;2023-02-17T09:32:10;96075.22;;;10.20;48.72
75166;BME280;63747;48.042;10.088;2023-02-17T09:35:12;96068.53;;;10.16;49.02
75166;BME280;63747;48.042;10.088;2023-02-17T09:38:14;96059.94;;;10.31;48.94
75166;BME280;63747;48.042;10.088;2023-02-17T09:41:38;96071.97;;;10.26;48.61
75166;BME280;63747;48.042;10.088;2023-02-17T09:44:43;96071.22;;;10.51;48.07
75166;BME280;63747;48.042;10.088;2023-02-17T09:47:54;96069.78;;;10.75;47.93
75166;BME280;63747;48.042;10.088;2023-02-17T09:51:03;96068.97;;;10.74;48.70
75166;BME280;63747;48.042;10.088;2023-02-17T09:57:20;96089.25;;;10.66;48.51
75166;BME280;63747;48.042;10.088;2023-02-17T10:00:31;96089.47;;;10.54;48.18
75166;BME280;63747;48.042;10.088;2023-02-17T10:03:36;96087.25;;;10.50;48.51
75166;BME280;63747;48.042;10.088;2023-02-17T10:06:42;96085.09;;;10.45;48.10
75166;BME280;63747;48.042;10.088;2023-02-17T10:10:13;96077.97;;;10.46;48.56
75166;BME280;63747;48.042;10.088;2023-02-17T10:13:19;96069.16;;;10.63;48.15
75166;BME280;63747;48.042;10.088;2023-02-17T10:16:25;96060.06;;;10.83;47.89
75166;BME280;63747;48.042;10.088;2023-02-17T10:19:55;96060.66;;;10.95;47.45
75166;BME280;63747;48.042;10.088;2023-02-17T10:23:10;96058.78;;;10.87;47.68
75166;BME280;63747;48.042;10.088;2023-02-17T10:29:35;96065.44;;;11.18;46.98
75166;BME280;63747;48.042;10.088;2023-02-17T10:36:29;96079.84;;;11.33;47.43
75166;BME280;63747;48.042;10.088;2023-02-17T10:39:54;96075.41;;;11.15;47.46
75166;BME280;63747;48.042;10.088;2023-02-17T10:43:02;96069.09;;;11.42;47.70
75166;BME280;63747;48.042;10.088;2023-02-17T10:46:05;96068.41;;;11.66;47.66
75166;BME280;63747;48.042;10.088;2023-02-17T10:49:17;96053.78;;;11.96;47.10
75166;BME280;63747;48.042;10.088;2023-02-17T10:52:38;96062.59;;;12.05;46.41
75166;BME280;63747;48.042;10.088;2023-02-17T10:59:16;96059.53;;;11.92;46.70
75166;BME280;63747;48.042;10.088;2023-02-17T11:02:41;96072.91;;;12.08;46.78
75166;BME280;63747;48.042;10.088;2023-02-17T11:05:41;96059.66;;;12.24;46.53
75166;BME280;63747;48.042;10.088;2023-02-17T11:08:49;96047.06;;;12.43;45.71
75166;BME280;63747;48.042;10.088;2023-02-17T11:11:59;96034.78;;;12.50;46.44
75166;BME280;63747;48.042;10.088;2023-02-17T11:15:03;96036.38;;;12.27;46.24
75166;BME280;63747;48.042;10.088;2023-02-17T11:18:10;96031.47;;;11.89;47.21
75166;BME280;63747;48.042;10.088;2023-02-17T11:21:11;96027.63;;;11.84;47.55
75166;BME280;63747;48.042;10.088;2023-02-17T11:24:12;96031.91;;;11.77;47.52
75166;BME280;63747;48.042;10.088;2023-02-17T11:27:23;96046.00;;;11.69;47.96
75166;BME280;63747;48.042;10.088;2023-02-17T11:30:25;96044.16;;;11.61;48.33
75166;BME280;63747;48.042;10.088;2023-02-17T11:33:38;96031.72;;;11.36;48.56
75166;BME280;63747;48.042;10.088;2023-02-17T11:36:39;96037.28;;;11.25;49.14
75166;BME280;63747;48.042;10.088;2023-02-17T11:39:45;96044.56;;;11.14;49.47
75166;BME280;63747;48.042;10.088;2023-02-17T11:42:54;96041.16;;;11.30;49.53
75166;BME280;63747;48.042;10.088;2023-02-17T11:56:14;96047.63;;;11.28;49.33
75166;BME280;63747;48.042;10.088;2023-02-17T11:59:36;96042.59;;;11.25;49.69
75166;BME280;63747;48.042;10.088;2023-02-17T12:06:07;96044.59;;;11.23;50.17
75166;BME280;63747;48.042;10.088;2023-02-17T12:09:21;96045.00;;;11.36;50.16
75166;BME280;63747;48.042;10.088;2023-02-17T12:26:54;96039.22;;;12.33;49.19
75166;BME280;63747;48.042;10.088;2023-02-17T12:33:41;96046.25;;;12.91;48.56
75166;BME280;63747;48.042;10.088;2023-02-17T12:36:48;96037.44;;;12.91;48.27
75166;BME280;63747;48.042;10.088;2023-02-17T12:39:51;96040.13;;;12.83;47.96
75166;BME280;63747;48.042;10.088;2023-02-17T12:42:57;96044.59;;;12.49;48.72
75166;BME280;63747;48.042;10.088;2023-02-17T12:46:03;96054.03;;;12.28;48.68
75166;BME280;63747;48.042;10.088;2023-02-17T12:49:08;96061.28;;;12.01;49.49
75166;BME280;63747;48.042;10.088;2023-02-17T12:52:34;96061.50;;;11.82;49.80
75166;BME280;63747;48.042;10.088;2023-02-17T12:55:43;96052.13;;;11.69;49.84
75166;BME280;63747;48.042;10.088;2023-02-17T12:58:48;96056.34;;;11.46;50.34
75166;BME280;63747;48.042;10.088;2023-02-17T13:02:00;96058.47;;;11.42;50.76
75166;BME280;63747;48.042;10.088;2023-02-17T13:05:05;96055.38;;;11.47;50.63
75166;BME280;63747;48.042;10.088;2023-02-17T13:08:23;96053.41;;;11.57;50.67
75166;BME280;63747;48.042;10.088;2023-02-17T13:11:26;96047.56;;;11.80;50.12
75166;BME280;63747;48.042;10.088;2023-02-17T13:14:38;96045.94;;;11.95;50.37
75166;BME280;63747;48.042;10.088;2023-02-17T13:17:52;96040.19;;;12.08;50.25
75166;BME280;63747;48.042;10.088;2023-02-17T13:20:56;96040.63;;;11.95;50.80
75166;BME280;63747;48.042;10.088;2023-02-17T13:24:05;96037.13;;;11.94;50.66
75166;BME280;63747;48.042;10.088;2023-02-17T13:30:39;96025.94;;;11.75;50.99
75166;BME280;63747;48.042;10.088;2023-02-17T13:33:43;96027.81;;;11.48;51.69
75166;BME280;63747;48.042;10.088;2023-02-17T13:36:44;96034.38;;;11.36;51.85
75166;BME280;63747;48.042;10.088;2023-02-17T13:39:45;96032.53;;;11.28;52.43
75166;BME280;63747;48.042;10.088;2023-02-17T13:42:50;96031.38;;;11.31;52.11
75166;BME280;63747;48.042;10.088;2023-02-17T13:46:03;96029.41;;;11.33;52.56
75166;BME280;63747;48.042;10.088;2023-02-17T13:49:05;96035.50;;;11.25;52.49
75166;BME280;63747;48.042;10.088;2023-02-17T13:52:08;96022.44;;;11.06;52.96
75166;BME280;63747;48.042;10.088;2023-02-17T13:55:17;96026.97;;;11.13;52.99
75166;BME280;63747;48.042;10.088;2023-02-17T13:58:27;96033.59;;;11.18;52.80
75166;BME280;63747;48.042;10.088;2023-02-17T14:01:28;96030.75;;;11.11;52.98
75166;BME280;63747;48.042;10.088;2023-02-17T14:04:30;96027.69;;;10.98;53.28
75166;BME280;63747;48.042;10.088;2023-02-17T14:07:33;96021.19;;;10.92;53.45
75166;BME280;63747;48.042;10.088;2023-02-17T14:10:34;96030.81;;;10.93;53.70
75166;BME280;63747;48.042;10.088;2023-02-17T14:13:37;96021.50;;;10.89;53.72
75166;BME280;63747;48.042;10.088;2023-02-17T14:16:40;96023.78;;;10.84;53.67
75166;BME280;63747;48.042;10.088;2023-02-17T14:19:45;96028.41;;;10.82;53.92
75166;BME280;63747;48.042;10.088;2023-02-17T14:22:46;96024.72;;;10.75;53.81
75166;BME280;63747;48.042;10.088;2023-02-17T14:26:08;96023.88;;;10.74;53.75
75166;BME280;63747;48.042;10.088;2023-02-17T14:29:10;96013.03;;;10.85;54.21
75166;BME280;63747;48.042;10.088;2023-02-17T14:32:35;96020.03;;;10.95;53.93
75166;BME280;63747;48.042;10.088;2023-02-17T14:35:37;96018.88;;;10.97;53.83
75166;BME280;63747;48.042;10.088;2023-02-17T14:38:41;96028.66;;;10.97;53.72
75166;BME280;63747;48.042;10.088;2023-02-17T14:41:42;96024.97;;;10.89;54.12
75166;BME280;63747;48.042;10.088;2023-02-17T14:44:43;96020.16;;;10.85;53.96
75166;BME280;63747;48.042;10.088;2023-02-17T14:47:44;96033.84;;;10.62;54.30
75166;BME280;63747;48.042;10.088;2023-02-17T14:50:46;96026.84;;;10.53;54.57
75166;BME280;63747;48.042;10.088;2023-02-17T14:53:48;96028.25;;;10.66;54.55
75166;BME280;63747;48.042;10.088;2023-02-17T14:56:59;96025.84;;;10.72;54.38
75166;BME280;63747;48.042;10.088;2023-02-17T15:00:02;96030.47;;;10.70;54.48
75166;BME280;63747;48.042;10.088;2023-02-17T15:03:03;96026.59;;;10.65;54.53
75166;BME280;63747;48.042;10.088;2023-02-17T15:09:18;96019.09;;;10.60;55.03
75166;BME280;63747;48.042;10.088;2023-02-17T15:12:23;96013.75;;;10.52;54.76
75166;BME280;63747;48.042;10.088;2023-02-17T15:15:24;96023.63;;;10.50;55.16
75166;BME280;63747;48.042;10.088;2023-02-17T15:18:25;96029.69;;;10.60;55.11
75166;BME280;63747;48.042;10.088;2023-02-17T15:21:28;96028.94;;;10.68;54.91
75166;BME280;63747;48.042;10.088;2023-02-17T15:24:32;96034.31;;;10.76;54.72
75166;BME280;63747;48.042;10.088;2023-02-17T15:27:33;96030.00;;;10.75;54.88
75166;BME280;63747;48.042;10.088;2023-02-17T15:30:34;96018.41;;;10.76;55.06
75166;BME280;63747;48.042;10.088;2023-02-17T15:33:43;96009.47;;;10.77;55.05
75166;BME280;63747;48.042;10.088;2023-02-17T15:36:45;96022.38;;;10.72;55.16
75166;BME280;63747;48.042;10.088;2023-02-17T15:39:45;96016.50;;;10.68;55.35
75166;BME280;63747;48.042;10.088;2023-02-17T15:42:52;96012.66;;;10.62;55.27
75166;BME280;63747;48.042;10.088;2023-02-17T15:45:53;96012.97;;;10.59;55.30
75166;BME280;63747;48.042;10.088;2023-02-17T15:48:54;96010.25;;;10.51;55.19
75166;BME280;63747;48.042;10.088;2023-02-17T15:51:54;96003.75;;;10.46;55.37
75166;BME280;63747;48.042;10.088;2023-02-17T15:54:55;96011.47;;;10.39;55.65
75166;BME280;63747;48.042;10.088;2023-02-17T15:57:58;96011.69;;;10.28;55.76
75166;BME280;63747;48.042;10.088;2023-02-17T16:01:01;96014.44;;;10.18;55.96
75166;BME280;63747;48.042;10.088;2023-02-17T16:04:03;96005.25;;;10.13;56.19
75166;BME280;63747;48.042;10.088;2023-02-17T16:07:03;96009.06;;;10.10;56.07
75166;BME280;63747;48.042;10.088;2023-02-17T16:10:05;95992.38;;;10.00;56.46
75166;BME280;63747;48.042;10.088;2023-02-17T16:13:05;95993.81;;;9.94;56.68
75166;BME280;63747;48.042;10.088;2023-02-17T16:16:18;96011.44;;;9.86;56.97
75166;BME280;63747;48.042;10.088;2023-02-17T16:19:19;96005.59;;;9.82;57.05
75166;BME280;63747;48.042;10.088;2023-02-17T16:22:21;96016.34;;;9.80;57.08
75166;BME280;63747;48.042;10.088;2023-02-17T16:25:21;96018.47;;;9.77;57.33
75166;BME280;63747;48.042;10.088;2023-02-17T16:28:22;96010.13;;;9.72;57.29
75166;BME280;63747;48.042;10.088;2023-02-17T16:31:23;96012.38;;;9.67;57.61
75166;BME280;63747;48.042;10.088;2023-02-17T16:34:23;96005.50;;;9.56;57.69
75166;BME280;63747;48.042;10.088;2023-02-17T16:37:25;96002.44;;;9.51;57.94
75166;BME280;63747;48.042;10.088;2023-02-17T16:40:28;96002.88;;;9.46;57.94
75166;BME280;63747;48.042;10.088;2023-02-17T16:43:29;95984.66;;;9.43;57.99
75166;BME280;63747;48.042;10.088;2023-02-17T16:46:32;95986.50;;;9.33;58.29
75166;BME280;63747;48.042;10.088;2023-02-17T16:49:35;95993.88;;;9.30;58.82
75166;BME280;63747;48.042;10.088;2023-02-17T16:52:38;96010.88;;;9.27;58.39
75166;BME280;63747;48.042;10.088;2023-02-17T16:55:40;96010.63;;;9.20;58.59
75166;BME280;63747;48.042;10.088;2023-02-17T16:58:44;96014.41;;;9.18;58.51
75166;BME280;63747;48.042;10.088;2023-02-17T17:01:45;96007.28;;;9.18;58.37
75166;BME280;63747;48.042;10.088;2023-02-17T17:04:45;96010.50;;;9.12;58.53
75166;BME280;63747;48.042;10.088;2023-02-17T17:07:46;96010.41;;;9.04;58.82
75166;BME280;63747;48.042;10.088;2023-02-17T17:10:47;96018.50;;;9.03;58.83
75166;BME280;63747;48.042;10.088;2023-02-17T17:13:48;96024.47;;;9.05;58.59
75166;BME280;63747;48.042;10.088;2023-02-17T17:16:52;96016.81;;;9.02;58.54
75166;BME280;63747;48.042;10.088;2023-02-17T17:19:54;96031.31;;;8.97;58.58